createdAt,value
2023-04-02T00:01:02.293Z,3.47
2023-04-02T00:03:05.025Z,3.30
2023-04-02T00:05:19.604Z,3.92
2023-04-02T00:07:30.267Z,3.70
2023-04-02T00:09:35.880Z,3.38
2023-04-02T00:11:40.391Z,4.25
2023-04-02T00:13:46.937Z,3.70
2023-04-02T00:15:51.653Z,4.35
2023-04-02T00:17:53.617Z,3.45
2023-04-02T00:20:02.538Z,4.28
2023-04-02T00:22:07.541Z,3.88
2023-04-02T00:24:17.862Z,3.45
2023-04-02T00:26:37.325Z,4.82
2023-04-02T00:28:38.777Z,4.07
2023-04-02T00:30:48.094Z,4.03
2023-04-02T00:32:49.807Z,4.13
2023-04-02T00:34:51.632Z,4.13
2023-04-02T00:36:53.500Z,3.97
2023-04-02T00:38:58.256Z,3.55
2023-04-02T00:41:03.737Z,3.65
2023-04-02T00:43:06.846Z,3.95
2023-04-02T00:45:22.537Z,4.38
2023-04-02T00:47:31.787Z,3.58
2023-04-02T00:49:39.468Z,4.03
2023-04-02T00:51:58.325Z,3.25
2023-04-02T00:54:03.954Z,4.18
2023-04-02T00:56:16.758Z,3.35
2023-04-02T00:58:27.564Z,4.25
2023-04-02T01:00:33.282Z,4.45
2023-04-02T01:02:38.402Z,4.18
2023-04-02T01:04:41.460Z,3.63
2023-04-02T01:06:43.941Z,4.32
2023-04-02T01:08:56.825Z,3.67
2023-04-02T01:11:01.260Z,3.75
2023-04-02T01:13:24.493Z,3.70
2023-04-02T01:15:33.520Z,3.58
2023-04-02T01:17:54.726Z,5.05
2023-04-02T01:20:07.791Z,3.80
2023-04-02T01:22:22.436Z,4.03
2023-04-02T01:24:29.790Z,3.85
2023-04-02T01:26:56.470Z,5.10
2023-04-02T01:29:10.645Z,3.65
2023-04-02T01:31:14.766Z,4.03
2023-04-02T01:33:16.286Z,5.65
2023-04-02T01:35:17.870Z,3.72
2023-04-02T01:37:34.877Z,4.13
2023-04-02T01:39:51.335Z,4.28
2023-04-02T01:42:09.187Z,3.85
2023-04-02T01:44:19.466Z,3.50
2023-04-02T01:46:32.793Z,4.25
2023-04-02T01:48:34.463Z,5.72
2023-04-02T01:50:38.723Z,3.75
2023-04-02T01:52:43.154Z,5.32
2023-04-02T01:54:47.174Z,5.35
2023-04-02T01:56:49.864Z,5.35
2023-04-02T01:58:51.358Z,4.82
2023-04-02T02:01:04.040Z,4.25
2023-04-02T02:03:06.283Z,4.90
2023-04-02T02:05:16.452Z,4.13
2023-04-02T02:07:20.747Z,5.60
2023-04-02T02:09:25.963Z,4.20
2023-04-02T02:11:29.976Z,4.60
2023-04-02T02:13:32.108Z,5.07
2023-04-02T02:15:35.880Z,4.30
2023-04-02T02:17:38.192Z,4.60
2023-04-02T02:19:45.465Z,4.68
2023-04-02T02:21:51.558Z,4.78
2023-04-02T02:23:54.910Z,4.22
2023-04-02T02:25:56.478Z,4.68
2023-04-02T02:28:14.345Z,4.20
2023-04-02T02:30:20.122Z,6.47
2023-04-02T02:32:26.381Z,4.78
2023-04-02T02:34:52.255Z,4.60
2023-04-02T02:37:04.404Z,4.47
2023-04-02T02:39:24.150Z,4.00
2023-04-02T02:42:02.862Z,4.53
2023-04-02T02:44:10.689Z,3.15
2023-04-02T02:46:18.009Z,4.47
2023-04-02T02:48:23.364Z,3.72
2023-04-02T02:50:31.667Z,4.05
2023-04-02T02:52:36.824Z,5.15
2023-04-02T02:54:41.669Z,4.07
2023-04-02T02:56:48.152Z,5.85
2023-04-02T02:58:52.800Z,3.80
2023-04-02T03:00:54.479Z,4.25
2023-04-02T03:02:57.810Z,3.50
2023-04-02T03:05:02.741Z,4.85
2023-04-02T03:07:06.119Z,4.85
2023-04-02T03:09:27.255Z,3.42
2023-04-02T03:12:05.693Z,4.35
2023-04-02T03:14:20.359Z,4.55
2023-04-02T03:16:31.962Z,5.80
2023-04-02T03:18:52.266Z,5.40
2023-04-02T03:21:00.437Z,6.72
2023-04-02T03:23:43.259Z,6.85
2023-04-02T03:25:52.596Z,5.53
2023-04-02T03:27:59.665Z,6.20
2023-04-02T03:32:29.244Z,5.72
2023-04-02T03:34:41.392Z,4.55
2023-04-02T03:36:52.057Z,6.07
2023-04-02T03:39:06.431Z,4.97
2023-04-02T03:41:31.851Z,4.68
2023-04-02T03:43:42.283Z,6.70
2023-04-02T03:45:49.307Z,4.90
2023-04-02T03:50:29.276Z,4.53
2023-04-02T03:52:31.194Z,6.32
2023-04-02T03:54:33.425Z,5.47
2023-04-02T03:56:40.134Z,6.05
2023-04-02T03:58:46.967Z,4.72
2023-04-02T04:01:03.767Z,5.35
2023-04-02T04:03:12.809Z,5.35
2023-04-02T04:05:20.448Z,7.05
2023-04-02T04:07:31.046Z,5.38
2023-04-02T04:09:36.958Z,5.90
2023-04-02T04:11:45.702Z,5.45
2023-04-02T04:14:11.112Z,5.78
2023-04-02T04:16:18.984Z,8.20
2023-04-02T04:18:53.004Z,6.68
2023-04-02T04:20:58.706Z,7.75
2023-04-02T04:23:37.499Z,7.15
2023-04-02T04:25:40.086Z,6.90
2023-04-02T04:28:16.612Z,7.10
2023-04-02T04:30:30.838Z,6.85
2023-04-02T04:32:42.665Z,7.28
2023-04-02T04:34:51.417Z,7.80
2023-04-02T04:37:01.579Z,7.13
2023-04-02T04:39:15.098Z,9.85
2023-04-02T04:41:24.323Z,8.52
2023-04-02T04:43:49.069Z,8.60
2023-04-02T04:45:54.399Z,8.23
2023-04-02T04:48:07.472Z,9.77
2023-04-02T04:50:16.304Z,8.27
2023-04-02T04:52:24.781Z,8.40
2023-04-02T04:54:28.146Z,10.25
2023-04-02T04:56:31.575Z,8.18
2023-04-02T04:58:56.157Z,8.13
2023-04-02T05:01:07.293Z,7.57
2023-04-02T05:03:31.151Z,9.35
2023-04-02T05:05:39.226Z,9.45
2023-04-02T05:07:50.807Z,8.98
2023-04-02T05:10:07.760Z,8.68
2023-04-02T05:12:35.354Z,10.68
2023-04-02T05:14:44.568Z,8.82
2023-04-02T05:17:02.294Z,10.00
2023-04-02T05:19:12.295Z,9.05
2023-04-02T05:21:13.628Z,10.35
2023-04-02T05:23:24.882Z,7.47
2023-04-02T05:25:29.380Z,9.55
2023-04-02T05:27:45.357Z,11.23
2023-04-02T05:29:53.788Z,7.80
2023-04-02T05:32:11.882Z,12.40
2023-04-02T05:34:14.565Z,10.27
2023-04-02T05:36:29.182Z,7.68
2023-04-02T05:38:34.460Z,8.75
2023-04-02T05:40:46.263Z,8.02
2023-04-02T05:42:50.946Z,10.40
2023-04-02T05:45:01.969Z,8.20
2023-04-02T05:47:08.705Z,8.73
2023-04-02T05:49:18.502Z,11.65
2023-04-02T05:51:28.416Z,10.05
2023-04-02T05:53:46.376Z,10.27
2023-04-02T05:56:03.119Z,8.73
2023-04-02T05:58:33.952Z,9.73
2023-04-02T06:00:39.778Z,9.20
2023-04-02T06:03:07.345Z,8.05
2023-04-02T06:05:15.919Z,11.18
2023-04-02T06:07:29.070Z,9.73
2023-04-02T06:09:39.316Z,7.88
2023-04-02T06:11:46.213Z,11.57
2023-04-02T06:13:47.649Z,9.30
2023-04-02T06:15:49.221Z,12.05
2023-04-02T06:17:50.715Z,8.77
2023-04-02T06:19:54.403Z,11.35
2023-04-02T06:22:08.430Z,8.52
2023-04-02T06:24:15.345Z,7.97
2023-04-02T06:26:23.999Z,8.82
2023-04-02T06:28:31.482Z,11.25
2023-04-02T06:30:36.989Z,10.65
2023-04-02T06:32:38.457Z,8.90
2023-04-02T06:34:42.064Z,9.45
2023-04-02T06:36:45.498Z,10.30
2023-04-02T06:38:49.672Z,9.73
2023-04-02T06:40:58.732Z,11.07
2023-04-02T06:43:07.192Z,10.32
2023-04-02T06:45:26.275Z,8.57
2023-04-02T06:47:42.441Z,8.60
2023-04-02T06:50:08.018Z,7.68
2023-04-02T06:52:39.117Z,8.27
2023-04-02T06:54:40.510Z,9.77
2023-04-02T06:56:47.580Z,7.13
2023-04-02T07:00:51.070Z,8.48
2023-04-02T07:02:55.289Z,7.07
2023-04-02T07:05:11.565Z,7.85
2023-04-02T07:07:13.135Z,7.78
2023-04-02T07:09:14.833Z,6.70
2023-04-02T07:11:20.901Z,7.47
2023-04-02T07:13:24.252Z,9.73
2023-04-02T07:15:25.853Z,7.47
2023-04-02T07:17:27.542Z,8.65
2023-04-02T07:19:28.952Z,7.70
2023-04-02T07:21:31.228Z,8.18
2023-04-02T07:23:32.730Z,7.80
2023-04-02T07:25:34.437Z,6.75
2023-04-02T07:27:36.257Z,7.18
2023-04-02T07:29:42.505Z,7.03
2023-04-02T07:31:44.221Z,7.95
2023-04-02T07:33:46.269Z,6.60
2023-04-02T07:35:48.377Z,8.35
2023-04-02T07:37:49.869Z,6.60
2023-04-02T07:39:51.659Z,9.38
2023-04-02T07:41:59.058Z,7.35
2023-04-02T07:44:00.671Z,5.40
2023-04-02T07:46:02.972Z,7.15
2023-04-02T07:48:09.568Z,7.97
2023-04-02T07:50:10.996Z,6.13
2023-04-02T07:52:12.583Z,8.15
2023-04-02T07:54:14.096Z,5.78
2023-04-02T07:56:18.019Z,7.10
2023-04-02T07:58:19.387Z,5.50
2023-04-02T08:00:22.612Z,5.53
2023-04-02T08:02:24.394Z,9.45
2023-04-02T08:04:27.357Z,7.00
2023-04-02T08:06:29.185Z,5.70
2023-04-02T08:08:30.969Z,7.60
2023-04-02T08:10:32.359Z,4.75
2023-04-02T08:12:33.772Z,7.30
2023-04-02T08:14:35.554Z,5.68
2023-04-02T08:16:51.987Z,6.20
2023-04-02T08:18:53.526Z,6.85
2023-04-02T08:20:55.044Z,5.50
2023-04-02T08:22:58.084Z,6.65
2023-04-02T08:24:59.500Z,5.78
2023-04-02T08:27:02.145Z,6.97
2023-04-02T08:29:04.032Z,7.53
2023-04-02T08:31:05.528Z,5.25
2023-04-02T08:33:07.041Z,5.38
2023-04-02T08:35:11.001Z,6.93
2023-04-02T08:37:13.564Z,9.05
2023-04-02T08:39:15.064Z,6.82
2023-04-02T08:41:24.526Z,5.97
2023-04-02T08:43:52.051Z,8.80
2023-04-02T08:46:06.530Z,7.30
2023-04-02T08:48:10.751Z,6.43
2023-04-02T08:50:30.979Z,9.77
2023-04-02T08:52:36.709Z,8.25
2023-04-02T08:54:38.224Z,6.65
2023-04-02T08:56:44.320Z,11.30
2023-04-02T08:58:54.284Z,8.77
2023-04-02T09:00:57.731Z,5.60
2023-04-02T09:03:20.653Z,6.95
2023-04-02T09:05:33.884Z,6.30
2023-04-02T09:09:38.289Z,7.30
2023-04-02T09:12:02.814Z,6.32
2023-04-02T09:14:13.960Z,8.30
2023-04-02T09:16:23.025Z,6.28
2023-04-02T09:18:24.560Z,4.97
2023-04-02T09:20:27.518Z,5.13
2023-04-02T09:22:31.662Z,6.70
2023-04-02T09:24:33.898Z,6.47
2023-04-02T09:26:35.896Z,6.35
2023-04-02T09:28:37.843Z,6.70
2023-04-02T09:30:54.445Z,7.57
2023-04-02T09:32:59.570Z,8.40
2023-04-02T09:35:15.009Z,6.38
2023-04-02T09:37:25.342Z,8.45
2023-04-02T09:39:26.870Z,4.25
2023-04-02T09:41:30.021Z,7.15
2023-04-02T09:43:36.943Z,7.63
2023-04-02T09:45:39.406Z,5.78
2023-04-02T09:47:42.478Z,7.30
2023-04-02T09:49:44.020Z,6.68
2023-04-02T09:51:45.682Z,8.68
2023-04-02T09:53:49.195Z,7.57
2023-04-02T09:56:08.214Z,8.10
2023-04-02T09:58:12.475Z,7.82
2023-04-02T10:00:25.945Z,5.25
2023-04-02T10:02:32.063Z,4.72
2023-04-02T10:04:49.505Z,6.80
2023-04-02T10:06:53.344Z,6.60
2023-04-02T10:08:54.839Z,5.88
2023-04-02T10:11:00.490Z,6.50
2023-04-02T10:13:13.011Z,4.30
2023-04-02T10:15:23.097Z,4.93
2023-04-02T10:17:37.257Z,5.57
2023-04-02T10:19:42.561Z,6.43
2023-04-02T10:21:47.110Z,4.45
2023-04-02T10:23:48.763Z,5.25
2023-04-02T10:26:27.698Z,5.43
2023-04-02T10:28:44.220Z,4.30
2023-04-02T10:31:02.556Z,4.68
2023-04-02T10:33:17.814Z,7.07
2023-04-02T10:35:31.466Z,6.32
2023-04-02T10:37:52.028Z,5.78
2023-04-02T10:40:01.889Z,3.67
2023-04-02T10:42:21.712Z,4.80
2023-04-02T10:44:37.288Z,4.95
2023-04-02T10:47:05.091Z,5.45
2023-04-02T10:49:34.901Z,5.65
2023-04-02T10:52:14.749Z,4.38
2023-04-02T10:54:46.778Z,6.88
2023-04-02T10:56:51.424Z,4.93
2023-04-02T10:59:02.527Z,6.40
2023-04-02T11:01:13.533Z,5.72
2023-04-02T11:03:24.187Z,5.95
2023-04-02T11:05:44.453Z,7.43
2023-04-02T11:07:59.862Z,3.38
2023-04-02T11:10:02.001Z,5.13
2023-04-02T11:12:05.661Z,3.30
2023-04-02T11:14:12.715Z,5.55
2023-04-02T11:18:28.969Z,4.28
2023-04-02T11:20:43.677Z,4.78
2023-04-02T11:22:47.377Z,5.57
2023-04-02T11:24:51.905Z,5.97
2023-04-02T11:26:54.191Z,5.65
2023-04-02T11:29:05.016Z,3.40
2023-04-02T11:31:06.621Z,3.17
2023-04-02T11:33:44.007Z,5.60
2023-04-02T11:35:46.435Z,5.47
2023-04-02T11:37:48.061Z,3.72
2023-04-02T11:39:56.722Z,3.38
2023-04-02T11:42:21.761Z,5.50
2023-04-02T11:44:24.287Z,6.70
2023-04-02T11:46:28.733Z,5.95
2023-04-02T11:48:36.164Z,4.70
2023-04-02T11:50:40.546Z,5.32
2023-04-02T11:52:45.360Z,4.30
2023-04-02T11:54:56.521Z,5.50
2023-04-02T11:57:15.452Z,3.72
2023-04-02T11:59:50.612Z,3.92
2023-04-02T12:01:57.959Z,3.60
2023-04-02T12:04:08.194Z,4.53
2023-04-02T12:06:26.997Z,4.88
2023-04-02T12:08:54.342Z,5.57
2023-04-02T12:11:01.501Z,4.40
2023-04-02T12:13:02.896Z,4.93
2023-04-02T12:15:36.966Z,5.53
2023-04-02T12:17:39.707Z,2.17
2023-04-02T12:19:46.090Z,3.30
2023-04-02T12:21:47.978Z,3.10
2023-04-02T12:23:53.267Z,3.63
2023-04-02T12:25:59.785Z,4.88
2023-04-02T12:28:07.545Z,3.15
2023-04-02T12:30:22.227Z,4.80
2023-04-02T12:32:30.901Z,4.13
2023-04-02T12:34:32.567Z,4.50
2023-04-02T12:36:34.645Z,4.72
2023-04-02T12:38:45.609Z,4.22
2023-04-02T12:41:02.396Z,3.63
2023-04-02T12:43:03.764Z,4.93
2023-04-02T12:45:06.823Z,3.47
2023-04-02T12:47:11.241Z,3.67
2023-04-02T12:49:34.504Z,4.88
2023-04-02T12:51:37.099Z,3.17
2023-04-02T12:53:41.149Z,3.42
2023-04-02T12:55:48.288Z,3.53
2023-04-02T12:57:54.850Z,3.83
2023-04-02T12:59:58.438Z,4.80
2023-04-02T13:02:02.347Z,2.70
2023-04-02T13:04:08.426Z,3.47
2023-04-02T13:06:24.342Z,3.75
2023-04-02T13:08:29.642Z,5.40
2023-04-02T13:10:31.716Z,5.60
2023-04-02T13:12:41.052Z,4.20
2023-04-02T13:14:42.503Z,4.10
2023-04-02T13:16:44.068Z,3.05
2023-04-02T13:18:48.101Z,5.13
2023-04-02T13:20:58.090Z,5.97
2023-04-02T13:23:02.297Z,5.28
2023-04-02T13:25:04.409Z,3.58
2023-04-02T13:27:06.246Z,4.30
2023-04-02T13:29:21.064Z,4.03
2023-04-02T13:31:22.468Z,6.15
2023-04-02T13:33:24.192Z,3.70
2023-04-02T13:35:27.300Z,3.53
2023-04-02T13:37:28.955Z,2.17
2023-04-02T13:39:30.894Z,2.70
2023-04-02T13:41:39.720Z,3.22
2023-04-02T13:43:41.414Z,3.95
2023-04-02T13:45:45.793Z,3.90
2023-04-02T13:47:47.288Z,5.43
2023-04-02T13:49:49.487Z,3.95
2023-04-02T13:51:58.693Z,4.20
2023-04-02T13:54:00.216Z,6.20
2023-04-02T13:56:01.860Z,4.13
2023-04-02T13:58:04.428Z,6.03
2023-04-02T14:00:06.520Z,6.57
2023-04-02T14:02:34.387Z,4.78
2023-04-02T14:04:43.033Z,5.93
2023-04-02T14:06:57.965Z,6.38
2023-04-02T14:09:07.700Z,3.35
2023-04-02T14:11:17.929Z,3.53
2023-04-02T14:13:25.231Z,3.78
2023-04-02T14:15:59.709Z,6.60
2023-04-02T14:18:41.110Z,3.95
2023-04-02T14:21:10.950Z,3.85
2023-04-02T14:23:15.228Z,4.25
2023-04-02T14:25:25.548Z,5.40
2023-04-02T14:27:42.021Z,4.07
2023-04-02T14:30:25.330Z,6.15
2023-04-02T14:32:41.952Z,3.75
2023-04-02T14:35:04.707Z,2.85
2023-04-02T14:37:13.665Z,7.63
2023-04-02T14:39:27.192Z,2.95
2023-04-02T14:43:46.270Z,5.38
2023-04-02T14:45:57.543Z,4.05
2023-04-02T14:48:26.234Z,3.83
2023-04-02T14:50:39.061Z,4.93
2023-04-02T14:52:44.139Z,4.75
2023-04-02T14:55:00.220Z,3.45
2023-04-02T14:57:29.240Z,4.78
2023-04-02T14:59:44.811Z,4.85
2023-04-02T15:01:49.267Z,4.30
2023-04-02T15:04:05.292Z,5.25
2023-04-02T15:06:11.969Z,2.30
2023-04-02T15:08:48.311Z,4.22
2023-04-02T15:11:05.835Z,4.47
2023-04-02T15:13:20.046Z,5.18
2023-04-02T15:15:42.743Z,4.28
2023-04-02T15:17:44.174Z,6.75
2023-04-02T15:19:46.364Z,3.47
2023-04-02T15:22:09.867Z,6.65
2023-04-02T15:24:22.808Z,6.82
2023-04-02T15:26:47.943Z,3.35
2023-04-02T15:29:27.767Z,2.75
2023-04-02T15:31:33.685Z,5.07
2023-04-02T15:33:38.137Z,6.80
2023-04-02T15:35:47.609Z,6.00
2023-04-02T15:38:22.607Z,3.13
2023-04-02T15:40:42.936Z,3.20
2023-04-02T15:43:00.010Z,3.67
2023-04-02T15:45:07.869Z,5.28
2023-04-02T15:47:20.288Z,5.38
2023-04-02T15:49:41.188Z,4.85
2023-04-02T15:52:01.326Z,5.35
2023-04-02T15:54:17.907Z,3.58
2023-04-02T15:56:58.325Z,3.88
2023-04-02T15:59:23.995Z,5.97
2023-04-02T16:01:48.728Z,2.90
2023-04-02T16:04:18.160Z,4.40
2023-04-02T16:06:32.369Z,5.57
2023-04-02T16:08:52.917Z,4.22
2023-04-02T16:10:54.375Z,3.03
2023-04-02T16:12:56.395Z,5.25
2023-04-02T16:15:07.813Z,4.35
2023-04-02T16:17:24.971Z,5.10
2023-04-02T16:19:40.122Z,5.03
2023-04-02T16:21:50.380Z,6.38
2023-04-02T16:23:51.757Z,3.53
2023-04-02T16:26:08.030Z,5.45
2023-04-02T16:28:23.734Z,5.13
2023-04-02T16:30:39.848Z,4.15
2023-04-02T16:32:53.325Z,3.88
2023-04-02T16:35:41.207Z,3.13
2023-04-02T16:37:48.786Z,7.00
2023-04-02T16:40:11.618Z,4.18
2023-04-02T16:42:34.830Z,3.97
2023-04-02T16:45:09.579Z,4.28
2023-04-02T16:47:35.666Z,5.85
2023-04-02T16:49:57.399Z,5.45
2023-04-02T16:52:10.395Z,5.55
2023-04-02T16:54:18.467Z,3.88
2023-04-02T16:56:35.070Z,5.32
2023-04-02T16:59:02.125Z,4.45
2023-04-02T17:01:25.646Z,2.95
2023-04-02T17:03:46.930Z,2.55
2023-04-02T17:06:09.170Z,4.93
2023-04-02T17:08:30.150Z,3.50
2023-04-02T17:10:41.039Z,4.25
2023-04-02T17:12:48.407Z,2.88
2023-04-02T17:14:58.585Z,3.47
2023-04-02T17:17:04.737Z,3.03
2023-04-02T17:19:11.439Z,5.45
2023-04-02T17:21:17.460Z,4.90
2023-04-02T17:23:20.842Z,5.15
2023-04-02T17:25:32.159Z,8.77
2023-04-02T17:27:43.277Z,4.85
2023-04-02T17:29:47.195Z,6.95
2023-04-02T17:31:50.340Z,4.40
2023-04-02T17:33:51.747Z,7.28
2023-04-02T17:36:08.509Z,4.60
2023-04-02T17:38:24.359Z,4.25
2023-04-02T17:40:42.155Z,4.93
2023-04-02T17:42:58.233Z,4.88
2023-04-02T17:45:32.807Z,5.45
2023-04-02T17:47:49.385Z,2.85
2023-04-02T17:50:26.019Z,3.60
2023-04-02T17:52:40.828Z,3.08
2023-04-02T17:55:08.290Z,4.10
2023-04-02T17:57:21.547Z,5.25
2023-04-02T18:02:01.437Z,2.85
2023-04-02T18:04:30.722Z,4.63
2023-04-02T18:07:27.771Z,3.53
2023-04-02T18:09:34.745Z,5.78
2023-04-02T18:14:17.162Z,6.40
2023-04-02T18:16:34.588Z,5.28
2023-04-02T18:18:38.692Z,3.88
2023-04-02T18:20:57.161Z,5.50
2023-04-02T18:23:35.259Z,5.45
2023-04-02T18:25:50.323Z,7.32
2023-04-02T18:28:12.778Z,7.18
2023-04-02T18:30:27.548Z,7.75
2023-04-02T18:32:50.094Z,9.85
2023-04-02T18:35:27.048Z,10.60
2023-04-02T18:38:01.040Z,10.50
2023-04-02T18:40:17.253Z,5.78
2023-04-02T18:42:24.693Z,5.88
2023-04-02T18:45:03.281Z,4.53
2023-04-02T18:47:17.018Z,5.55
2023-04-02T18:49:36.897Z,5.15
2023-04-02T18:51:39.996Z,4.38
2023-04-02T18:53:43.034Z,5.68
2023-04-02T18:55:56.197Z,4.63
2023-04-02T18:58:02.391Z,3.60
2023-04-02T19:00:16.741Z,4.65
2023-04-02T19:02:33.037Z,4.57
2023-04-02T19:04:36.717Z,6.70
2023-04-02T19:06:48.204Z,5.50
2023-04-02T19:09:15.019Z,6.07
2023-04-02T19:11:28.550Z,6.07
2023-04-02T19:13:29.949Z,5.45
2023-04-02T19:15:51.849Z,5.50
2023-04-02T19:18:04.322Z,4.63
2023-04-02T19:20:19.321Z,5.63
2023-04-02T19:22:44.693Z,5.43
2023-04-02T19:25:00.914Z,4.13
2023-04-02T19:27:19.130Z,6.57
2023-04-02T19:29:44.790Z,3.85
2023-04-02T19:31:55.506Z,3.67
2023-04-02T19:34:12.181Z,4.97
2023-04-02T19:36:28.846Z,4.75
2023-04-02T19:38:55.825Z,5.28
2023-04-02T19:40:57.129Z,5.07
2023-04-02T19:42:58.606Z,6.05
2023-04-02T19:45:00.217Z,7.85
2023-04-02T19:47:02.159Z,4.97
2023-04-02T19:49:12.607Z,7.00
2023-04-02T19:51:14.106Z,5.68
2023-04-02T19:53:16.204Z,4.75
2023-04-02T19:55:17.633Z,8.13
2023-04-02T19:57:19.229Z,6.60
2023-04-02T19:59:20.833Z,5.70
2023-04-02T20:01:22.727Z,7.03
2023-04-02T20:03:24.509Z,7.95
2023-04-02T20:05:26.133Z,5.63
2023-04-02T20:07:27.513Z,3.88
2023-04-02T20:09:29.755Z,5.35
2023-04-02T20:11:31.245Z,5.25
2023-04-02T20:13:33.502Z,6.57
2023-04-02T20:15:35.709Z,4.75
2023-04-02T20:17:37.404Z,6.97
2023-04-02T20:19:38.811Z,5.32
2023-04-02T20:21:40.534Z,5.60
2023-04-02T20:23:42.044Z,8.65
2023-04-02T20:25:54.071Z,5.82
2023-04-02T20:27:55.501Z,5.57
2023-04-02T20:29:56.991Z,6.75
2023-04-02T20:31:58.354Z,5.65
2023-04-02T20:34:00.125Z,6.45
2023-04-02T20:36:05.553Z,5.97
2023-04-02T20:38:08.203Z,5.90
2023-04-02T20:40:10.712Z,5.00
2023-04-02T20:42:13.976Z,5.03
2023-04-02T20:44:15.812Z,5.63
2023-04-02T20:46:17.630Z,5.30
2023-04-02T20:48:19.075Z,5.63
2023-04-02T20:50:20.452Z,5.53
2023-04-02T20:52:21.988Z,8.27
2023-04-02T20:54:23.448Z,6.13
2023-04-02T20:56:24.845Z,6.18
2023-04-02T20:58:26.449Z,6.20
2023-04-02T21:00:27.825Z,5.32
2023-04-02T21:02:29.223Z,4.97
2023-04-02T21:04:30.656Z,5.15
2023-04-02T21:06:34.757Z,5.10
2023-04-02T21:08:36.910Z,7.18
2023-04-02T21:10:39.511Z,6.55
2023-04-02T21:12:41.025Z,5.72
2023-04-02T21:14:42.400Z,6.40
2023-04-02T21:16:43.917Z,5.30
2023-04-02T21:18:46.615Z,5.15
2023-04-02T21:20:57.763Z,8.05
2023-04-02T21:22:59.139Z,7.03
2023-04-02T21:25:00.755Z,7.75
2023-04-02T21:27:02.150Z,5.28
2023-04-02T21:29:04.393Z,4.50
2023-04-02T21:31:10.775Z,4.93
2023-04-02T21:33:12.272Z,5.22
2023-04-02T21:35:13.691Z,4.30
2023-04-02T21:37:15.387Z,5.30
2023-04-02T21:39:23.058Z,4.63
2023-04-02T21:41:28.644Z,5.50
2023-04-02T21:43:29.991Z,6.13
2023-04-02T21:45:31.477Z,5.03
2023-04-02T21:47:32.891Z,5.25
2023-04-02T21:49:34.314Z,4.90
2023-04-02T21:51:37.668Z,3.88
2023-04-02T21:53:40.326Z,4.55
2023-04-02T21:55:41.730Z,3.05
2023-04-02T21:57:43.164Z,4.55
2023-04-02T21:59:44.602Z,3.92
2023-04-02T22:01:48.914Z,4.10
2023-04-02T22:03:50.875Z,3.60
2023-04-02T22:06:16.564Z,5.28
2023-04-02T22:08:17.951Z,5.15
2023-04-02T22:10:19.414Z,6.43
2023-04-02T22:12:20.883Z,4.03
2023-04-02T22:14:23.040Z,6.30
2023-04-02T22:16:27.043Z,4.97
2023-04-02T22:18:28.582Z,4.43
2023-04-02T22:20:29.981Z,4.72
2023-04-02T22:22:31.570Z,3.92
2023-04-02T22:24:33.003Z,3.97
2023-04-02T22:26:35.066Z,3.20
2023-04-02T22:28:37.204Z,4.25
2023-04-02T22:30:39.014Z,4.07
2023-04-02T22:32:40.724Z,6.45
2023-04-02T22:34:45.526Z,4.07
2023-04-02T22:36:47.337Z,4.60
2023-04-02T22:38:49.633Z,4.47
2023-04-02T22:40:51.188Z,2.92
2023-04-02T22:42:52.680Z,4.22
2023-04-02T22:44:54.168Z,2.70
2023-04-02T22:46:55.585Z,5.70
2023-04-02T22:48:57.401Z,4.90
2023-04-02T22:50:58.846Z,3.83
2023-04-02T22:53:00.401Z,3.72
2023-04-02T22:55:01.814Z,5.95
2023-04-02T22:57:03.340Z,8.13
2023-04-02T22:59:04.843Z,5.40
2023-04-02T23:01:09.100Z,4.90
2023-04-02T23:03:10.765Z,6.00
2023-04-02T23:05:12.839Z,5.82
2023-04-02T23:07:14.247Z,7.05
2023-04-02T23:09:15.763Z,6.32
2023-04-02T23:11:22.561Z,7.57
2023-04-02T23:13:23.962Z,5.57
2023-04-02T23:15:25.479Z,5.38
2023-04-02T23:17:26.916Z,6.32
2023-04-02T23:19:28.289Z,6.75
2023-04-02T23:21:29.885Z,7.35
2023-04-02T23:23:31.971Z,6.30
2023-04-02T23:25:33.361Z,7.85
2023-04-02T23:27:34.827Z,7.47
2023-04-02T23:29:36.207Z,7.43
2023-04-02T23:31:37.805Z,8.38
2023-04-02T23:33:39.802Z,9.30
2023-04-02T23:35:41.215Z,7.68
2023-04-02T23:37:42.635Z,9.88
2023-04-02T23:39:44.054Z,9.05
2023-04-02T23:41:46.114Z,9.68
2023-04-02T23:43:47.674Z,8.30
2023-04-02T23:45:49.655Z,10.27
2023-04-02T23:47:51.098Z,9.30
2023-04-02T23:49:52.501Z,10.52
2023-04-02T23:51:54.060Z,9.13
2023-04-02T23:53:55.764Z,11.20
2023-04-02T23:55:57.450Z,11.13
2023-04-02T23:57:58.866Z,9.13
